LIMZ/CUF METAR and TAF weather

Enter ICAO airport designator
Station Type Date Time Source
LIMZ METAR 2019/12/09 19:50 UTC NOAA

LIMZ 091950Z 15004KT CAVOK 03/M00 Q1009


Station Type Date Time Source
LIMZ Decoded METAR 2019/12/09 19:50 UTC NOAA

Cuneo / Levaldigi, Italy (LIMZ) 44-32-47N 007-37-20E
Dec 09, 2019 - 02:50 PM EST / 2019.12.09 1950 UTC
Wind: from the SSE (150 degrees) at 5 MPH (4 KT):0
Visibility: greater than 7 mile(s):0
Temperature: 37 F (3 C)
Dew Point: 32 F (0 C)
Relative Humidity: 80%
Pressure (altimeter): 29.80 in. Hg (1009 hPa)
ob: LIMZ 091950Z 15004KT CAVOK 03/M00 Q1009
cycle: 20

Station Type Date Time Source
LIMZ TAF 2019/12/09 18:27 UTC NOAA

TAF
AMD TAF
AMD LIMZ 092123Z 0918/1018 CNL

Example: see airport list